Time;durP1;ratioP1;P1;durP2;ratioP2;P2;SDS_P1;SDS_P2;PMS_P1;PMS_P2;Temp;Humidity;BMP_temperature;BMP_pressure;BME280_temperature;BME280_humidity;BME280_pressure;Samples;Min_cycle;Max_cycle;Signal;HPM_P1;HPM_P2
2021/12/16 00:08:41;;;;;;;;;43.25;38.25;;;;;10.89;67.18;103043.00;4943305;28;46110;-53
2021/12/16 00:19:43;;;;;;;;;38.00;34.25;;;;;10.92;67.14;103045.72;4961055;28;45778;-49
2021/12/16 00:35:34;;;;;;;;;41.25;35.25;;;;;10.97;67.10;103044.06;4961236;28;45230;-51
2021/12/16 00:38:00;;;;;;;;;41.00;34.50;;;;;10.96;67.07;103042.31;4961036;28;45536;-47
2021/12/16 00:40:25;;;;;;;;;43.25;34.50;;;;;10.99;67.19;103046.75;4960571;28;45463;-49
2021/12/16 00:42:55;;;;;;;;;42.00;36.00;;;;;10.99;67.19;103046.75;4961322;28;45370;-48
2021/12/16 00:56:00;;;;;;;;;48.25;37.25;;;;;11.00;67.08;103045.88;4960781;28;45359;-51
2021/12/16 00:58:36;;;;;;;;;40.00;35.75;;;;;11.00;67.19;103038.00;4961559;28;45580;-48
2021/12/16 01:01:12;;;;;;;;;38.25;34.50;;;;;11.01;67.03;103034.50;4960589;28;46181;-47
2021/12/16 01:03:51;;;;;;;;;38.25;33.75;;;;;11.01;67.18;103034.50;4961452;28;45353;-49
2021/12/16 01:06:46;;;;;;;;;36.50;32.50;;;;;11.01;67.07;103035.38;4961752;28;45346;-49
2021/12/16 01:09:49;;;;;;;;;35.50;33.00;;;;;11.02;67.12;103026.66;4961425;28;46343;-47
2021/12/16 01:34:58;;;;;;;;;44.00;35.00;;;;;11.03;67.11;103023.16;4960999;28;46422;-47
2021/12/16 01:45:34;;;;;;;;;51.25;40.25;;;;;11.05;66.98;103034.59;4961005;28;45394;-51
2021/12/16 01:50:50;;;;;;;;;51.50;40.75;;;;;11.01;67.07;103039.78;4952160;28;45463;-50
2021/12/16 01:53:34;;;;;;;;;49.75;39.00;;;;;11.02;67.17;103037.16;4940901;28;45397;-48
2021/12/16 01:56:09;;;;;;;;;47.25;40.25;;;;;11.03;66.92;103051.19;4960929;28;46317;-52
2021/12/16 01:58:35;;;;;;;;;32.50;29.75;;;;;11.03;67.03;103048.56;4960857;28;45260;-48
2021/12/16 02:01:19;;;;;;;;;40.00;34.25;;;;;11.03;67.10;103049.47;4961258;28;45618;-47
2021/12/16 02:03:54;;;;;;;;;43.75;36.25;;;;;11.02;67.11;103041.56;4960713;28;45493;-52
2021/12/16 02:06:39;;;;;;;;;49.00;39.75;;;;;11.02;67.05;103049.44;4960844;28;46957;-46
2021/12/16 02:09:21;;;;;;;;;48.75;42.00;;;;;11.02;67.11;103052.94;4960689;28;45465;-49
2021/12/16 02:11:58;;;;;;;;;45.50;38.00;;;;;11.00;67.15;103041.50;4960956;28;45486;-49
2021/12/16 02:28:20;;;;;;;;;45.50;37.00;;;;;10.99;67.09;103054.63;4964521;28;45789;-47
2021/12/16 02:36:28;;;;;;;;;45.25;36.00;;;;;11.00;67.13;103043.25;4963993;28;45371;-47
2021/12/16 02:38:58;;;;;;;;;44.75;36.75;;;;;10.98;67.18;103045.88;4963656;28;46095;-48
2021/12/16 02:41:25;;;;;;;;;51.50;42.00;;;;;11.00;67.09;103046.75;4963901;28;45509;-46
2021/12/16 02:49:03;;;;;;;;;48.00;38.00;;;;;11.00;67.14;103038.88;4963698;28;45349;-47
2021/12/16 02:51:29;;;;;;;;;43.50;36.50;;;;;11.00;67.23;103038.88;4963801;28;45149;-46
2021/12/16 02:54:00;;;;;;;;;46.50;35.00;;;;;11.01;66.99;103039.78;4946472;28;45437;-51
2021/12/16 02:56:27;;;;;;;;;50.00;39.00;;;;;11.03;67.10;103052.09;4963737;28;45536;-50
2021/12/16 02:58:55;;;;;;;;;52.00;41.25;;;;;11.02;66.93;103052.09;4946192;28;45597;-51
2021/12/16 03:01:29;;;;;;;;;47.50;38.25;;;;;11.02;67.44;103052.94;4963863;28;45274;-50
2021/12/16 03:03:57;;;;;;;;;50.50;37.50;;;;;11.02;67.20;103049.44;4963372;28;45292;-48
2021/12/16 03:06:23;;;;;;;;;45.00;38.75;;;;;10.91;67.18;103022.91;4963729;28;45456;-50
2021/12/16 03:08:49;;;;;;;;;49.50;41.00;;;;;11.03;66.85;103038.03;4945744;28;47983;-48
2021/12/16 03:21:36;;;;;;;;;48.50;36.75;;;;;11.04;67.18;103050.34;4963424;28;45464;-49
2021/12/16 03:32:22;;;;;;;;;50.00;39.00;;;;;11.04;67.13;103052.97;4963246;28;45323;-51
2021/12/16 03:37:40;;;;;;;;;51.50;39.00;;;;;11.06;67.25;103053.91;4963222;28;45302;-51
2021/12/16 03:40:09;;;;;;;;;51.25;43.00;;;;;11.05;67.11;103058.25;4962750;28;46130;-47
2021/12/16 03:42:46;;;;;;;;;45.25;38.75;;;;;11.05;67.27;103058.25;4963012;28;45299;-48
2021/12/16 03:48:10;;;;;;;;;54.50;44.00;;;;;11.04;67.16;103051.25;4962837;28;45399;-47
2021/12/16 03:50:36;;;;;;;;;52.25;39.75;;;;;11.04;67.21;103056.50;4962968;28;45449;-48
2021/12/16 03:53:04;;;;;;;;;49.00;42.00;;;;;11.04;67.18;103059.16;4962716;28;45299;-48
2021/12/16 03:55:30;;;;;;;;;60.50;47.50;;;;;11.05;67.24;103058.25;4962883;28;45351;-48
2021/12/16 03:57:56;;;;;;;;;57.25;45.75;;;;;11.06;67.18;103060.03;4945354;28;45427;-51
2021/12/16 04:00:29;;;;;;;;;57.25;46.00;;;;;11.05;67.19;103060.03;4945195;28;46432;-47
2021/12/16 04:02:55;;;;;;;;;57.50;45.00;;;;;11.05;67.33;103055.63;4962334;28;45397;-48
2021/12/16 04:05:22;;;;;;;;;60.75;48.25;;;;;11.05;67.17;103058.25;4962613;28;45300;-50
2021/12/16 04:07:48;;;;;;;;;56.25;46.00;;;;;11.03;67.18;103057.38;4962463;28;45550;-49
2021/12/16 04:10:31;;;;;;;;;57.25;45.75;;;;;11.04;67.36;103053.88;4961971;28;46224;-50
2021/12/16 04:12:56;;;;;;;;;55.25;45.75;;;;;11.05;67.41;103055.63;4945907;28;45513;-50
2021/12/16 04:15:21;;;;;;;;;53.50;43.75;;;;;11.05;67.24;103058.25;4962693;28;45378;-49
2021/12/16 04:17:47;;;;;;;;;60.50;49.00;;;;;11.05;67.27;103058.25;4962406;28;45266;-50
2021/12/16 04:20:14;;;;;;;;;58.00;45.25;;;;;11.06;67.33;103059.16;4962364;28;46116;-47
2021/12/16 04:22:43;;;;;;;;;54.50;44.00;;;;;11.06;67.32;103060.03;4962281;28;45371;-51
2021/12/16 04:25:14;;;;;;;;;62.50;48.25;;;;;11.06;67.20;103062.69;4962203;28;45572;-48
2021/12/16 04:27:41;;;;;;;;;57.00;44.50;;;;;11.04;67.21;103061.78;4962427;28;46022;-48
2021/12/16 04:30:08;;;;;;;;;57.00;47.00;;;;;11.05;67.38;103055.63;4961838;28;46400;-49
2021/12/16 04:32:33;;;;;;;;;59.75;48.25;;;;;11.04;67.35;103056.50;4962231;28;45351;-50
2021/12/16 04:34:59;;;;;;;;;57.50;45.50;;;;;11.04;67.57;103066.13;4962303;28;45294;-50
2021/12/16 04:37:24;;;;;;;;;61.50;49.00;;;;;11.05;67.30;103067.91;4962268;28;45309;-48
2021/12/16 04:39:50;;;;;;;;;58.50;44.50;;;;;11.05;67.31;103071.41;4961948;28;46048;-52
2021/12/16 04:42:19;;;;;;;;;59.75;47.25;;;;;11.03;67.38;103073.16;4961985;28;45320;-48
2021/12/16 04:44:45;;;;;;;;;67.50;52.50;;;;;11.04;67.63;103076.66;4962262;28;45425;-51
2021/12/16 04:47:13;;;;;;;;;60.75;47.50;;;;;11.05;67.25;103076.69;4961935;28;45514;-49
2021/12/16 04:49:38;;;;;;;;;62.25;49.25;;;;;11.06;67.36;103081.09;4961896;28;45315;-50
2021/12/16 04:52:09;;;;;;;;;65.25;50.25;;;;;11.06;67.33;103080.22;4961780;28;45400;-51
2021/12/16 04:54:34;;;;;;;;;56.00;45.75;;;;;11.04;67.42;103069.66;4961909;28;45356;-49
2021/12/16 04:57:00;;;;;;;;;61.00;48.75;;;;;11.07;67.41;103074.09;4961913;28;45540;-52
2021/12/16 04:59:27;;;;;;;;;59.50;47.25;;;;;11.07;67.43;103082.00;4961397;28;46021;-49
2021/12/16 05:01:58;;;;;;;;;58.00;47.75;;;;;11.08;67.48;103082.88;4961732;28;45371;-51
2021/12/16 05:04:24;;;;;;;;;61.75;48.25;;;;;11.08;67.41;103082.88;4961722;28;45323;-49
2021/12/16 05:06:51;;;;;;;;;56.75;46.25;;;;;11.08;67.47;103078.53;4961852;28;45501;-50
2021/12/16 05:09:44;;;;;;;;;59.25;48.00;;;;;11.08;67.44;103082.88;4944135;28;47162;-50
2021/12/16 05:12:03;;;;;;;;;55.50;46.75;;;;;11.08;67.46;103088.13;4961058;28;45497;-47
2021/12/16 05:14:29;;;;;;;;;59.50;48.00;;;;;11.08;67.48;103085.50;4944351;28;45340;-48
2021/12/16 05:16:54;;;;;;;;;63.00;48.00;;;;;11.08;67.49;103083.78;4961694;28;45287;-48
2021/12/16 05:19:20;;;;;;;;;65.25;51.50;;;;;11.08;67.42;103082.88;4961326;28;46297;-47
2021/12/16 05:21:58;;;;;;;;;154.75;137.25;;;;;11.08;67.62;103080.25;4961434;28;45319;-55
2021/12/16 05:24:27;;;;;;;;;66.25;51.00;;;;;11.10;67.45;103074.16;4961571;28;45292;-46
2021/12/16 05:26:59;;;;;;;;;63.50;51.00;;;;;11.12;67.39;103084.72;4961553;28;45387;-51
2021/12/16 05:29:25;;;;;;;;;59.75;46.25;;;;;11.12;67.46;103079.44;4961518;28;45482;-46
2021/12/16 05:31:53;;;;;;;;;53.75;44.25;;;;;11.11;67.45;103077.69;4961406;28;45307;-48
2021/12/16 05:34:19;;;;;;;;;53.50;45.50;;;;;11.12;67.35;103087.34;4961020;28;45280;-47
2021/12/16 05:36:45;;;;;;;;;59.75;48.25;;;;;11.12;67.69;103089.97;4961184;28;45430;-50
2021/12/16 05:39:14;;;;;;;;;54.50;45.75;;;;;11.10;67.63;103083.81;4961144;28;46124;-47
2021/12/16 05:41:40;;;;;;;;;55.25;44.00;;;;;11.13;67.50;103094.38;4961094;28;45185;-49
2021/12/16 05:44:05;;;;;;;;;65.00;51.00;;;;;11.13;67.51;103092.66;4961501;28;45427;-46
2021/12/16 05:46:31;;;;;;;;;60.50;48.00;;;;;11.12;67.44;103097.88;4960904;28;45304;-48
2021/12/16 05:48:58;;;;;;;;;59.75;47.00;;;;;11.14;67.53;103098.78;4960706;28;46410;-49
2021/12/16 05:51:28;;;;;;;;;60.75;48.50;;;;;11.13;67.50;103097.94;4961127;28;45549;-50
2021/12/16 05:53:55;;;;;;;;;59.00;46.75;;;;;11.14;67.44;103117.22;4961167;28;45243;-48
2021/12/16 05:56:20;;;;;;;;;61.50;48.50;;;;;11.14;67.75;103111.97;4960986;28;45235;-48
2021/12/16 05:58:46;;;;;;;;;64.75;50.25;;;;;11.15;67.51;103111.97;4960560;28;46891;-49
2021/12/16 06:01:28;;;;;;;;;61.25;49.25;;;;;11.15;67.59;103113.75;4960829;28;45173;-47
2021/12/16 06:03:53;;;;;;;;;58.25;47.75;;;;;11.16;67.61;103120.78;4943483;28;45309;-50
2021/12/16 06:06:19;;;;;;;;;59.75;48.50;;;;;11.15;67.72;103113.75;4961294;28;45261;-46
2021/12/16 06:08:47;;;;;;;;;62.00;47.00;;;;;11.16;67.59;103120.78;4960602;28;46049;-46
2021/12/16 06:11:21;;;;;;;;;64.50;50.75;;;;;11.17;67.60;103127.78;4960859;28;45157;-49
2021/12/16 06:14:17;;;;;;;;;56.50;45.75;;;;;11.16;67.46;103134.81;4961006;28;45394;-47
2021/12/16 06:27:58;;;;;;;;;59.75;45.25;;;;;11.17;67.59;103125.16;4960933;28;45394;-50
2021/12/16 06:30:27;;;;;;;;;59.75;48.75;;;;;11.18;67.62;103130.50;4947626;28;46170;-50
2021/12/16 06:32:53;;;;;;;;;58.50;45.50;;;;;11.19;67.66;103129.63;4941164;28;45464;-49
2021/12/16 06:35:20;;;;;;;;;56.00;45.25;;;;;11.21;67.63;103127.03;4951325;28;45430;-50
2021/12/16 06:37:45;;;;;;;;;63.00;50.00;;;;;11.21;67.61;103130.53;4956219;28;45311;-46
2021/12/16 06:40:12;;;;;;;;;58.25;47.00;;;;;11.22;67.71;103126.19;4933906;28;47043;-45
2021/12/16 06:42:41;;;;;;;;;58.00;46.25;;;;;11.25;67.72;103131.50;4931066;28;46167;-48
2021/12/16 06:45:20;;;;;;;;;57.25;46.25;;;;;11.25;67.50;103122.72;4951891;28;45363;-46
2021/12/16 06:47:50;;;;;;;;;58.75;46.75;;;;;11.26;67.79;103122.75;4949600;28;45404;-47
2021/12/16 06:51:05;;;;;;;;;62.25;49.25;;;;;11.28;67.56;103128.94;4959845;28;47150;-47
2021/12/16 06:53:10;;;;;;;;;58.50;46.50;;;;;11.29;67.46;103138.59;4946746;28;45240;-46
2021/12/16 06:55:49;;;;;;;;;57.00;45.75;;;;;11.30;67.54;103137.75;4942438;28;45303;-45
2021/12/16 06:58:26;;;;;;;;;62.50;48.75;;;;;11.31;67.58;103121.09;4959247;28;45537;-46
2021/12/16 07:01:03;;;;;;;;;57.00;45.75;;;;;11.33;67.53;103140.47;4961984;28;45525;-45
2021/12/16 07:03:39;;;;;;;;;61.00;46.75;;;;;11.34;67.48;103133.44;4958734;28;45510;-46
2021/12/16 07:06:04;;;;;;;;;56.50;46.50;;;;;11.34;67.58;103134.31;4958337;28;45350;-47
2021/12/16 07:08:30;;;;;;;;;55.75;46.75;;;;;11.37;67.74;103141.38;4963613;28;45244;-48
2021/12/16 07:10:57;;;;;;;;;54.50;45.25;;;;;11.38;67.44;103132.63;4961824;28;46272;-48
2021/12/16 07:13:35;;;;;;;;;63.75;50.50;;;;;11.38;67.58;103141.44;4962996;28;45318;-47
2021/12/16 07:16:01;;;;;;;;;59.00;46.50;;;;;11.40;67.62;103143.22;4944732;28;45275;-47
2021/12/16 07:18:26;;;;;;;;;55.75;42.25;;;;;11.40;67.57;103145.84;4962242;28;45378;-46
2021/12/16 07:20:52;;;;;;;;;61.50;47.25;;;;;11.42;67.64;103147.66;4962764;28;45463;-49
2021/12/16 07:23:17;;;;;;;;;57.50;45.00;;;;;11.42;67.44;103141.47;4962734;28;45408;-47
2021/12/16 07:25:42;;;;;;;;;57.50;46.00;;;;;11.44;67.63;103143.28;4962096;28;45156;-47
2021/12/16 07:28:09;;;;;;;;;57.50;45.75;;;;;11.45;67.46;103146.84;4962998;28;45363;-50
2021/12/16 07:30:42;;;;;;;;;53.75;43.75;;;;;11.45;67.57;103152.09;4945368;28;47252;-48
2021/12/16 07:33:09;;;;;;;;;55.25;45.50;;;;;11.47;67.59;103148.63;4962503;28;45364;-46
2021/12/16 07:35:35;;;;;;;;;55.75;46.75;;;;;11.49;67.44;103148.66;4962823;28;45218;-46
2021/12/16 07:38:01;;;;;;;;;58.00;46.50;;;;;11.50;67.55;103151.31;4957478;28;45438;-44
2021/12/16 07:40:27;;;;;;;;;57.00;45.00;;;;;11.49;67.39;103156.56;4961634;28;45372;-47
2021/12/16 07:45:31;;;;;;;;;55.00;45.75;;;;;11.50;67.49;103153.06;4962737;28;45359;-47
2021/12/16 07:47:57;;;;;;;;;58.25;45.50;;;;;11.49;67.58;103154.81;4962643;28;45479;-49
2021/12/16 07:50:23;;;;;;;;;56.00;43.50;;;;;11.49;67.39;103151.28;4962560;28;47078;-45
2021/12/16 07:52:50;;;;;;;;;56.00;43.00;;;;;11.50;67.64;103160.97;4945292;28;45871;-45
2021/12/16 07:55:18;;;;;;;;;55.25;45.75;;;;;11.50;67.53;103143.41;4962594;28;45227;-44
2021/12/16 07:57:44;;;;;;;;;62.00;48.75;;;;;11.48;67.74;103153.06;4962501;28;45573;-47
2021/12/16 08:00:18;;;;;;;;;79.50;66.75;;;;;11.50;67.59;103155.72;4962182;28;46300;-45
2021/12/16 08:02:44;;;;;;;;;58.25;47.00;;;;;11.51;67.65;103163.63;4962259;28;45351;-47
2021/12/16 08:05:11;;;;;;;;;55.25;43.50;;;;;11.51;67.52;103165.38;4960514;28;45366;-45
2021/12/16 08:07:38;;;;;;;;;54.25;44.25;;;;;11.51;67.64;103166.25;4956098;28;45478;-46
2021/12/16 08:10:07;;;;;;;;;59.00;48.75;;;;;11.52;67.46;103162.78;4944233;28;48339;-46
2021/12/16 08:12:33;;;;;;;;;55.00;45.75;;;;;11.49;67.72;103172.34;4943361;28;45501;-44
2021/12/16 08:14:59;;;;;;;;;56.00;47.00;;;;;11.52;67.59;103167.13;4949962;28;45424;-46
2021/12/16 08:17:25;;;;;;;;;59.75;46.75;;;;;11.50;67.69;103176.78;4960358;28;45313;-46
2021/12/16 08:19:50;;;;;;;;;54.25;44.00;;;;;11.51;67.81;103179.44;4962360;28;45352;-46
2021/12/16 08:22:16;;;;;;;;;54.50;44.50;;;;;11.51;67.61;103178.56;4944755;28;45389;-47
2021/12/16 08:24:41;;;;;;;;;59.00;46.00;;;;;11.51;67.66;103182.06;4962529;28;45335;-48
2021/12/16 08:27:08;;;;;;;;;53.75;43.25;;;;;11.53;67.77;103182.09;4959837;28;45580;-46
2021/12/16 08:29:34;;;;;;;;;51.25;41.25;;;;;11.53;67.68;103183.00;4955001;28;46208;-45
2021/12/16 08:31:59;;;;;;;;;55.00;43.50;;;;;11.54;67.63;103189.13;4961999;28;45249;-47
2021/12/16 08:34:27;;;;;;;;;56.00;45.00;;;;;11.53;67.60;103182.09;4962118;28;45279;-46
2021/12/16 08:36:52;;;;;;;;;58.00;47.25;;;;;11.54;67.66;103184.75;4962041;28;45370;-47
2021/12/16 08:39:18;;;;;;;;;62.25;48.25;;;;;11.54;67.80;103182.13;4958222;28;45538;-47
2021/12/16 08:41:50;;;;;;;;;56.50;46.00;;;;;11.55;67.71;103183.91;4961935;28;45411;-46
2021/12/16 08:44:16;;;;;;;;;57.25;45.50;;;;;11.57;67.41;103190.94;4944358;28;45469;-45
2021/12/16 08:46:47;;;;;;;;;57.25;46.00;;;;;11.57;67.66;103191.81;4942913;28;45258;-49
2021/12/16 08:49:14;;;;;;;;;60.75;46.25;;;;;11.57;67.59;103196.22;4961567;28;45489;-44
2021/12/16 08:51:44;;;;;;;;;60.50;46.25;;;;;11.59;67.75;103194.50;4944516;28;45521;-51
2021/12/16 08:54:10;;;;;;;;;66.50;50.25;;;;;11.59;67.76;103194.50;4944049;28;45486;-48
2021/12/16 08:56:36;;;;;;;;;56.50;46.25;;;;;11.58;67.65;103198.00;4944181;28;45387;-48
2021/12/16 08:59:03;;;;;;;;;55.00;44.25;;;;;11.61;67.73;103198.94;4959386;28;45458;-48
2021/12/16 09:01:32;;;;;;;;;53.50;45.00;;;;;11.63;67.92;103193.72;4961792;28;45239;-49
2021/12/16 09:03:58;;;;;;;;;57.25;45.25;;;;;11.64;67.74;103198.13;4961702;28;45344;-49
2021/12/16 09:06:25;;;;;;;;;56.25;46.00;;;;;11.65;67.72;103202.53;4961824;28;45260;-45
2021/12/16 09:08:51;;;;;;;;;59.75;47.00;;;;;11.65;67.81;103208.69;4961417;28;46027;-49
2021/12/16 09:11:21;;;;;;;;;56.50;46.25;;;;;11.64;67.68;103204.25;4951914;28;45359;-45
2021/12/16 09:13:49;;;;;;;;;59.50;47.25;;;;;11.69;68.05;103210.50;4958136;28;45637;-44
2021/12/16 09:16:19;;;;;;;;;55.00;46.75;;;;;11.69;67.97;103207.88;4959447;28;45424;-44
2021/12/16 09:18:44;;;;;;;;;57.50;46.50;;;;;11.72;67.85;103217.59;4958853;28;47757;-45
2021/12/16 09:21:13;;;;;;;;;56.25;46.25;;;;;11.74;67.96;103217.66;4959143;28;45475;-49
2021/12/16 09:23:41;;;;;;;;;59.50;46.50;;;;;11.75;68.00;103214.13;4959017;28;45448;-47
2021/12/16 09:26:07;;;;;;;;;74.75;59.75;;;;;11.77;67.69;103221.19;4959076;28;45536;-48
2021/12/16 09:28:33;;;;;;;;;58.00;47.75;;;;;11.78;67.89;103230.88;4961348;28;45385;-50
2021/12/16 09:30:59;;;;;;;;;57.75;47.00;;;;;11.80;67.85;103218.66;4961212;28;45264;-47
2021/12/16 09:33:26;;;;;;;;;57.50;45.75;;;;;11.82;68.03;103221.31;4961336;28;45274;-45
2021/12/16 09:35:54;;;;;;;;;56.25;45.50;;;;;11.83;67.94;103221.34;4961160;28;45255;-46
2021/12/16 09:38:22;;;;;;;;;61.00;48.00;;;;;11.86;68.02;103224.03;4959609;28;46116;-47
2021/12/16 09:40:53;;;;;;;;;55.75;46.50;;;;;11.88;68.11;103218.78;4955652;28;45336;-44
2021/12/16 09:43:23;;;;;;;;;58.75;47.50;;;;;11.91;67.87;103233.78;4951200;28;45366;-49
2021/12/16 09:45:49;;;;;;;;;50.50;43.25;;;;;11.93;67.94;103245.25;4960001;28;45426;-46
2021/12/16 09:48:14;;;;;;;;;58.50;46.25;;;;;11.93;67.59;103247.88;4961195;28;45257;-48
2021/12/16 09:50:40;;;;;;;;;57.50;45.50;;;;;11.96;67.75;103238.34;4961122;28;45521;-46
2021/12/16 09:53:05;;;;;;;;;56.75;46.25;;;;;11.96;67.95;103235.69;4961333;28;45484;-45
2021/12/16 09:55:33;;;;;;;;;61.25;48.50;;;;;11.99;68.03;103248.03;4960854;28;45232;-44
2021/12/16 09:58:00;;;;;;;;;56.00;45.25;;;;;12.00;67.90;103248.06;4961188;28;46223;-45
2021/12/16 10:00:29;;;;;;;;;59.25;47.75;;;;;12.03;68.12;103248.09;4960798;28;45310;-47
2021/12/16 10:02:55;;;;;;;;;61.25;48.75;;;;;12.06;67.89;103246.41;4961089;28;45395;-47
2021/12/16 10:05:22;;;;;;;;;57.50;46.25;;;;;12.09;67.91;103251.72;4961051;28;45766;-49
2021/12/16 10:07:47;;;;;;;;;60.75;48.25;;;;;12.09;68.05;103244.72;4959764;28;45272;-48
2021/12/16 10:10:17;;;;;;;;;59.00;46.00;;;;;12.13;67.86;103246.53;4960514;28;45342;-45
2021/12/16 10:12:45;;;;;;;;;53.75;43.50;;;;;12.16;67.83;103253.63;4960919;28;45347;-45
2021/12/16 10:18:10;;;;;;;;;57.50;43.25;;;;;12.19;67.80;103254.56;4960665;28;45296;-45
2021/12/16 10:20:59;;;;;;;;;79.00;67.00;;;;;12.22;68.06;103248.47;4960629;28;45490;-45
2021/12/16 10:23:34;;;;;;;;;59.00;46.75;;;;;12.24;68.10;103257.31;4961095;28;45427;-48
2021/12/16 10:26:14;;;;;;;;;62.00;48.50;;;;;12.26;67.86;103252.94;4960717;28;45261;-48
2021/12/16 10:28:44;;;;;;;;;51.00;43.00;;;;;12.25;67.98;103245.91;4960667;28;46035;-46
2021/12/16 10:31:11;;;;;;;;;61.00;48.00;;;;;12.30;68.05;103246.88;4960605;28;45278;-46
2021/12/16 10:33:47;;;;;;;;;57.75;45.50;;;;;12.32;67.73;103249.53;4944420;28;45288;-47
2021/12/16 10:36:35;;;;;;;;;55.25;44.50;;;;;12.33;67.77;103248.69;4964145;28;45264;-50
2021/12/16 10:39:17;;;;;;;;;63.50;48.25;;;;;12.34;67.67;103248.69;4964046;28;45314;-45
2021/12/16 10:42:04;;;;;;;;;52.00;43.50;;;;;12.38;67.92;103259.28;4963859;28;45283;-45
2021/12/16 10:44:34;;;;;;;;;53.50;43.50;;;;;12.39;67.80;103259.34;4964176;28;45347;-49
2021/12/16 10:47:10;;;;;;;;;55.00;45.00;;;;;12.42;67.75;103253.25;4963671;28;45161;-48
2021/12/16 10:49:45;;;;;;;;;58.50;46.00;;;;;12.46;67.62;103257.69;4963734;28;46274;-47
2021/12/16 10:52:13;;;;;;;;;56.00;45.50;;;;;12.46;67.67;103252.44;4963869;28;45268;-48
2021/12/16 10:54:42;;;;;;;;;56.75;45.25;;;;;12.48;67.75;103250.72;4930338;28;45448;-48
2021/12/16 10:57:17;;;;;;;;;58.50;42.75;;;;;12.51;67.90;103251.66;4963885;28;45466;-46
2021/12/16 10:59:58;;;;;;;;;50.75;43.00;;;;;12.51;67.93;103240.22;4963547;28;46333;-48
2021/12/16 11:02:33;;;;;;;;;57.25;44.75;;;;;12.57;68.04;103247.34;4946162;28;45869;-46
2021/12/16 11:05:01;;;;;;;;;57.75;47.75;;;;;12.58;67.69;103242.09;4963986;28;45347;-45
2021/12/16 11:07:29;;;;;;;;;58.00;47.25;;;;;12.60;68.01;103243.03;4963665;28;45414;-44
2021/12/16 11:10:14;;;;;;;;;57.75;45.50;;;;;12.63;67.90;103247.47;4945799;28;45991;-49
2021/12/16 11:12:47;;;;;;;;;52.00;41.75;;;;;12.65;67.89;103244.00;4963477;28;45297;-47
2021/12/16 11:15:35;;;;;;;;;54.00;45.50;;;;;12.70;67.91;103256.34;4963545;28;45316;-45
2021/12/16 11:18:02;;;;;;;;;54.50;45.75;;;;;12.71;67.80;103247.59;4963419;28;45489;-45
2021/12/16 11:20:37;;;;;;;;;61.00;48.00;;;;;12.75;67.98;103255.56;4945788;28;46882;-44
2021/12/16 11:23:29;;;;;;;;;59.50;47.25;;;;;12.75;67.77;103250.28;4963518;28;45309;-46
2021/12/16 11:25:59;;;;;;;;;58.75;46.25;;;;;12.80;67.64;103258.28;4963185;28;45465;-48
2021/12/16 11:28:31;;;;;;;;;48.25;38.75;;;;;12.80;67.94;103248.63;4963367;28;45442;-44
2021/12/16 11:31:05;;;;;;;;;51.00;43.00;;;;;12.85;67.89;103246.03;4963035;28;46076;-45
2021/12/16 11:33:40;;;;;;;;;57.00;43.75;;;;;12.87;67.82;103244.34;4962918;28;45251;-46
2021/12/16 11:36:08;;;;;;;;;54.00;45.75;;;;;12.91;67.53;103245.28;4963337;28;45229;-45
2021/12/16 11:38:36;;;;;;;;;58.00;45.75;;;;;12.92;67.81;103242.66;4963011;28;45372;-47
2021/12/16 11:41:13;;;;;;;;;59.00;47.75;;;;;12.96;67.39;103249.75;4962902;28;46411;-48
2021/12/16 11:43:59;;;;;;;;;60.50;49.75;;;;;12.96;67.53;103243.59;4962888;28;45344;-45
2021/12/16 11:46:42;;;;;;;;;65.75;52.00;;;;;12.99;67.93;103241.91;4962354;28;45235;-46
2021/12/16 11:49:21;;;;;;;;;72.00;58.75;;;;;13.00;67.38;103243.69;4961311;28;45236;-47
2021/12/16 11:51:51;;;;;;;;;61.50;49.75;;;;;13.05;67.68;103234.94;4944045;28;45494;-45
2021/12/16 11:54:25;;;;;;;;;57.50;45.00;;;;;13.07;67.77;103241.09;4948234;28;45477;-47
2021/12/16 11:56:58;;;;;;;;;56.75;44.00;;;;;13.10;67.72;103241.16;4947551;28;45499;-49
2021/12/16 11:59:29;;;;;;;;;53.75;45.00;;;;;13.11;67.56;103243.81;4943920;28;45368;-47
2021/12/16 12:01:55;;;;;;;;;53.25;44.50;;;;;13.13;67.71;103239.47;4956633;28;46412;-45
2021/12/16 12:04:28;;;;;;;;;74.00;61.00;;;;;13.15;67.73;103235.06;4958167;28;45408;-44
2021/12/16 12:06:54;;;;;;;;;56.75;45.50;;;;;13.17;67.43;103230.72;4951598;28;45258;-45
2021/12/16 12:09:31;;;;;;;;;44.75;36.50;;;;;13.20;67.30;103235.16;4956159;28;45434;-45
2021/12/16 12:11:57;;;;;;;;;55.75;44.50;;;;;13.21;67.30;103230.78;4961288;28;45238;-47
2021/12/16 12:14:29;;;;;;;;;54.00;43.50;;;;;13.22;67.43;103233.44;4945212;28;45284;-45
2021/12/16 12:17:04;;;;;;;;;55.00;44.75;;;;;13.17;67.41;103214.88;4961843;28;45304;-47
2021/12/16 12:19:29;;;;;;;;;52.00;42.00;;;;;13.28;67.31;103229.97;4962208;28;45201;-46
2021/12/16 12:21:58;;;;;;;;;51.75;40.50;;;;;13.28;67.12;103220.31;4944528;28;47330;-49
2021/12/16 12:24:40;;;;;;;;;57.00;45.50;;;;;13.31;67.37;103222.97;4954644;28;45328;-49
2021/12/16 12:27:12;;;;;;;;;50.25;42.50;;;;;13.32;67.65;103216.84;4960971;28;45376;-50
2021/12/16 12:29:42;;;;;;;;;52.00;41.75;;;;;13.35;67.45;103220.41;4962064;28;45320;-47
2021/12/16 12:32:09;;;;;;;;;50.75;41.50;;;;;13.35;67.35;103221.28;4958929;28;46233;-50
2021/12/16 12:34:37;;;;;;;;;48.75;40.75;;;;;13.37;67.47;103216.94;4961636;28;45413;-50
2021/12/16 12:37:09;;;;;;;;;42.75;36.00;;;;;13.39;67.37;103219.59;4961086;28;45418;-45
2021/12/16 12:39:39;;;;;;;;;54.75;44.25;;;;;13.40;67.23;103216.09;4961175;28;45497;-46
2021/12/16 12:42:06;;;;;;;;;50.25;41.75;;;;;13.41;67.06;103217.84;4961922;28;47222;-45
2021/12/16 12:44:33;;;;;;;;;50.50;41.00;;;;;13.42;67.43;103217.00;4961761;28;45411;-49
2021/12/16 12:47:04;;;;;;;;;44.75;37.50;;;;;13.43;67.18;103208.19;4961791;28;45356;-48
2021/12/16 12:49:30;;;;;;;;;49.50;40.00;;;;;13.44;67.19;103207.34;4959148;28;45523;-47
2021/12/16 12:52:15;;;;;;;;;60.00;47.25;;;;;13.45;67.30;103198.56;4954889;28;46136;-45
2021/12/16 12:54:45;;;;;;;;;50.50;39.25;;;;;13.47;67.38;103210.00;4958052;28;45263;-46
2021/12/16 12:57:24;;;;;;;;;48.75;39.50;;;;;13.47;67.33;103199.44;4960692;28;45651;-48
2021/12/16 12:59:50;;;;;;;;;48.25;39.50;;;;;13.48;67.50;103202.13;4961297;28;45326;-49
2021/12/16 13:02:34;;;;;;;;;51.50;39.00;;;;;13.48;66.89;103199.50;4961235;28;45520;-49
2021/12/16 13:05:18;;;;;;;;;45.25;37.50;;;;;13.49;67.03;103203.88;4954958;28;45201;-46
2021/12/16 13:07:52;;;;;;;;;43.25;35.25;;;;;13.51;67.25;103203.91;4961662;28;45281;-47
2021/12/16 13:10:22;;;;;;;;;48.00;39.75;;;;;13.51;67.37;103201.28;4944265;28;45524;-47
2021/12/16 13:12:59;;;;;;;;;45.75;38.25;;;;;13.52;67.45;103197.78;4961140;28;46330;-47
2021/12/16 13:29:16;;;;;;;;;38.25;33.25;;;;;13.56;67.02;103189.00;4949153;28;45566;-44
2021/12/16 13:32:04;;;;;;;;;42.25;35.75;;;;;13.57;67.16;103189.88;4957592;28;46049;-47
2021/12/16 13:34:37;;;;;;;;;42.50;34.00;;;;;13.57;66.79;103180.22;4951247;28;46699;-47
2021/12/16 13:37:11;;;;;;;;;41.00;34.00;;;;;13.57;66.69;103177.59;4941716;28;45276;-46
2021/12/16 13:39:42;;;;;;;;;43.75;33.00;;;;;13.57;66.55;103180.22;4941892;28;45529;-46
2021/12/16 13:42:15;;;;;;;;;35.50;32.50;;;;;13.58;66.93;103179.31;4941719;28;45291;-46
2021/12/16 13:44:52;;;;;;;;;33.75;31.00;;;;;13.59;67.04;103182.88;4941751;28;46145;-45
2021/12/16 13:59:51;;;;;;;;;37.75;32.25;;;;;13.59;66.59;103175.81;4946983;28;45672;-45
2021/12/16 14:04:56;;;;;;;;;41.00;34.00;;;;;13.57;66.41;103182.88;4960090;28;45349;-45
2021/12/16 14:07:55;;;;;;;;;41.50;34.25;;;;;13.58;67.01;103174.03;4944187;28;47177;-46
2021/12/16 14:10:54;;;;;;;;;44.00;34.75;;;;;13.59;66.84;103177.59;4941084;28;45558;-45
2021/12/16 14:16:35;;;;;;;;;41.00;35.75;;;;;13.57;66.50;103168.75;4948025;28;45489;-46